Truckee, California
Current Conditions -  °F | °C
As of 7:45 AM on Sunday 25 Jan 2015 (Local Time) from KTRK Reporting Station
Few Clouds Few Clouds  
Wind Chill: 19°   Ceiling: Unl
Heat Index: 19°   Visibility: 10mi
Dew Point: 16°   Wind: 0mph
Humidity: 86%   Direction: NA
Pressure: 30.42"   Gusts: NA
Location:  39.33°N, 120.21°W
Report Text: KTRK 251545Z 00000KT 10SM FEW180 M07/M09 A3042 RMK NOSPECI
Loading
Personal Weather Stations






























Interactive Weather Map New forecast layout! Learn more

10-Day Weather Forecast

Advertisements
Track Severe Weather on mobile